Sea Angel — V7II7 — position and weather

sailwx.info

Track history (hours):
 
Tides and Currents Weather Stations Pressure Air Temp Water Temp Dewpoint Dewpoint Depression Visibility Wind Speed Wind Dir Waves Ship Positions

Sea Angel

Last reported at 2017-Nov-20 00:29 UTC. Time now 2017-Nov-23 20:58 UTC.
Position N 57°25' E 008°38'.

Length 181 m; draft 9.2 m.

Type: Cargo ship. MMSI: 538005945.

Date/timePositionNaut miles runAvg speedWind from/ knotsBaromVisibWave heightAir tempDewpointWater temp
2017-Nov-20 00:29N 57°25' E 008°38'510.5
2017-Nov-20 00:00N 57°21' E 008°30'  
2017-Nov-17 17:24N 51°32' E 002°16'511.3
2017-Nov-17 17:00N 51°28' E 002°11'611.6
2017-Nov-17 16:30N 51°24' E 002°05'611.6
2017-Nov-17 16:00N 51°20' E 001°58'612.0
2017-Nov-17 15:30N 51°15' E 001°52'612.1
2017-Nov-17 15:00N 51°11' E 001°46'612.2
2017-Nov-17 14:30N 51°06' E 001°40'612.5
2017-Nov-17 14:00N 51°00' E 001°36'712.9
2017-Nov-17 13:29N 50°55' E 001°30'6211.8
2017-Nov-17 08:15N 50°20' E 000°09'413.4
2017-Nov-17 07:58N 50°19' E 000°03'613.5
2017-Nov-17 07:30N 50°17' W 000°06'713.5
2017-Nov-17 06:56N 50°15' W 000°17'3012.8
2017-Nov-17 04:37N 50°08' W 001°02'111.4
2017-Nov-17 04:30N 50°08' W 001°04'611.1
2017-Nov-17 03:59N 50°06' W 001°13'510.4
2017-Nov-17 03:30N 50°05' W 001°21'5 9.6
2017-Nov-17 03:00N 50°04' W 001°28'4 9.0
2017-Nov-17 02:30N 50°03' W 001°35'4 8.3
2017-Nov-17 02:00N 50°02' W 001°41'4 7.8
2017-Nov-17 01:30N 50°01' W 001°47'4 7.4
2017-Nov-17 01:00N 49°60' W 001°52'4 7.4
2017-Nov-17 00:30N 49°59' W 001°58'4 7.3
2017-Nov-17 00:00N 49°58' W 002°03'4 7.8
2017-Nov-16 23:30N 49°57' W 002°09'2410.1
2017-Nov-16 21:10N 49°51' W 002°45'211.5
2017-Nov-16 21:00N 49°51' W 002°48'7111.4
2017-Nov-16 14:45N 49°16' W 004°24'3113.2
2017-Nov-16 12:24N 49°00' W 005°04'713.1
2017-Nov-16 11:53N 48°57' W 005°14'512.7
2017-Nov-16 11:30N 48°54' W 005°20'612.5
2017-Nov-16 11:00N 48°51' W 005°28'712.2
2017-Nov-16 10:27N 48°48' W 005°37'511.8
2017-Nov-16 10:00N 48°44' W 005°42'1011.4
2017-Nov-16 09:09N 48°35' W 005°48'211.2
2017-Nov-16 09:00N 48°34' W 005°50'1311.0
2017-Nov-16 07:51N 48°22' W 005°59'510.8
2017-Nov-16 07:24N 48°18' W 006°02'710.8
2017-Nov-16 06:46N 48°12' W 006°07'510.8
2017-Nov-16 06:21N 48°08' W 006°10'410.7
2017-Nov-16 05:58N 48°05' W 006°13'811.1
2017-Nov-16 05:14N 47°57' W 006°19'311.2
2017-Nov-16 04:56N 47°54' W 006°21'511.2
2017-Nov-16 04:28N 47°50' W 006°25'610.9
2017-Nov-16 03:55N 47°45' W 006°29'714.7
2017-Nov-16 03:28N 47°39' W 006°34'4 7.6
2017-Nov-16 03:00N 47°36' W 006°36'915.0
2017-Nov-16 02:24N 47°28' W 006°43'2 6.1
2017-Nov-16 01:59N 47°25' W 006°44'611.5
2017-Nov-16 01:27N 47°20' W 006°49'1110.9
2017-Nov-16 00:27N 47°10' W 006°56'712.0
2017-Nov-15 23:50N 47°04' W 007°01'412.7
2017-Nov-15 23:30N 46°60' W 007°04'812.2
2017-Nov-15 22:50N 46°53' W 007°10'1012.3
2017-Nov-15 22:02N 46°44' W 007°17'512.0
2017-Nov-15 21:36N 46°40' W 007°20'212.1
2017-Nov-15 21:25N 46°38' W 007°22'50810.8
2017-Nov-13 22:30N 38°42' W 011°27'510.7
2017-Nov-13 22:00N 38°37' W 011°28'43310.8
2017-Nov-12 06:00N 31°39' W 013°47'611.6
2017-Nov-12 05:30N 31°34' W 013°49'611.6
2017-Nov-12 05:00N 31°28' W 013°51'611.7
2017-Nov-12 04:30N 31°23' W 013°52'6711.2
2017-Nov-11 22:31N 30°18' W 014°13'010.7
2017-Nov-11 22:30N 30°17' W 014°13'510.7
2017-Nov-11 21:59N 30°12' W 014°15'510.6
2017-Nov-11 21:29N 30°07' W 014°16'510.6
2017-Nov-11 21:00N 30°02' W 014°18'510.5
2017-Nov-11 20:30N 29°57' W 014°19'510.2
2017-Nov-11 20:00N 29°52' W 014°21'510.4
2017-Nov-11 19:30N 29°47' W 014°22'510.3
2017-Nov-11 19:00N 29°42' W 014°24'910.8
2017-Nov-11 18:10N 29°33' W 014°27'1710.9
2017-Nov-11 16:35N 29°17' W 014°34'210.8
2017-Nov-11 16:25N 29°16' W 014°34'510.6
2017-Nov-11 15:59N 29°12' W 014°37'510.4
2017-Nov-11 15:30N 29°07' W 014°40'610.5
2017-Nov-11 14:59N 29°03' W 014°44'510.5
2017-Nov-11 14:28N 28°58' W 014°47'510.3
2017-Nov-11 14:00N 28°54' W 014°50'510.4
2017-Nov-11 13:30N 28°50' W 014°53'510.2
2017-Nov-11 13:00N 28°46' W 014°56'5 9.9
2017-Nov-11 12:30N 28°42' W 014°59'510.3
2017-Nov-11 12:00N 28°37' W 015°03'510.7
2017-Nov-11 11:30N 28°33' W 015°06'510.3
2017-Nov-11 11:00N 28°29' W 015°09'510.5
2017-Nov-11 10:30N 28°24' W 015°13'510.5
2017-Nov-11 10:00N 28°20' W 015°16'510.3
2017-Nov-11 09:30N 28°15' W 015°19'510.6
2017-Nov-11 09:00N 28°10' W 015°21'4 8.6
2017-Nov-11 08:30N 28°07' W 015°24'1 1.0
2017-Nov-11 07:53N 28°08' W 015°25'0 0.0
2017-Nov-11 07:26N 28°08' W 015°25'0 0.0
2017-Nov-11 06:59N 28°08' W 015°25'0 0.0
2017-Nov-11 06:26N 28°08' W 015°25'0 0.0
2017-Nov-11 05:53N 28°08' W 015°25'0 0.0
2017-Nov-11 05:26N 28°08' W 015°25'0 0.0
2017-Nov-11 04:59N 28°08' W 015°25'0 0.1
2017-Nov-11 04:29N 28°08' W 015°25'0 0.1
2017-Nov-11 03:59N 28°08' W 015°25'0 0.0
2017-Nov-11 03:29N 28°08' W 015°25'0 0.3
2017-Nov-11 02:59N 28°07' W 015°25'0 0.8
2017-Nov-11 02:30N 28°07' W 015°25'1 1.7
2017-Nov-11 01:59N 28°06' W 015°24'0 0.2
2017-Nov-11 01:29N 28°06' W 015°24'0 0.0
2017-Nov-11 00:59N 28°06' W 015°24'0 0.0
2017-Nov-11 00:29N 28°06' W 015°24'0 0.0
2017-Nov-10 23:50N 28°06' W 015°24'0 0.1
2017-Nov-10 23:29N 28°06' W 015°24'0 0.0
2017-Nov-10 22:50N 28°06' W 015°24'0 0.0
2017-Nov-10 22:20N 28°06' W 015°24'0 0.1
2017-Nov-10 21:50N 28°06' W 015°24'0 0.0
2017-Nov-10 21:23N 28°06' W 015°24'0 0.0
2017-Nov-10 20:50N 28°06' W 015°24'0 0.0
2017-Nov-10 20:23N 28°06' W 015°24'0 0.0
2017-Nov-10 19:56N 28°06' W 015°24'0 0.0
2017-Nov-10 19:23N 28°06' W 015°24'0 0.0
2017-Nov-10 18:56N 28°06' W 015°24'0 0.0
2017-Nov-10 18:26N 28°06' W 015°24'0 0.1
2017-Nov-10 17:56N 28°06' W 015°24'0 0.0
2017-Nov-10 17:23N 28°06' W 015°24'0 0.0
2017-Nov-10 16:56N 28°06' W 015°24'0 0.1
2017-Nov-10 16:29N 28°06' W 015°24'0 0.1
2017-Nov-10 15:56N 28°06' W 015°24'0 0.1
2017-Nov-10 15:26N 28°06' W 015°24'0 0.0
2017-Nov-10 14:59N 28°06' W 015°24'0 0.0
2017-Nov-10 14:23N 28°06' W 015°24'0 0.0
2017-Nov-10 13:59N 28°06' W 015°24'0 0.0
2017-Nov-10 13:14N 28°06' W 015°24'0 0.2
2017-Nov-10 12:59N 28°06' W 015°24'0 0.0
2017-Nov-10 12:29N 28°06' W 015°24'0 0.1
2017-Nov-10 11:59N 28°06' W 015°24'0 0.0
2017-Nov-10 11:29N 28°06' W 015°24'0 0.0
2017-Nov-10 10:59N 28°06' W 015°24'0 0.0
2017-Nov-10 10:20N 28°06' W 015°24'0 0.0
2017-Nov-10 09:59N 28°06' W 015°24'0 0.1
2017-Nov-10 09:29N 28°06' W 015°24'0 0.0
2017-Nov-10 08:50N 28°06' W 015°24'0 0.0
2017-Nov-10 08:29N 28°06' W 015°24'0 0.0
2017-Nov-10 07:50N 28°06' W 015°24'0 0.0
2017-Nov-10 07:23N 28°06' W 015°24'0 0.1
2017-Nov-10 06:53N 28°06' W 015°24'0 0.0
2017-Nov-10 06:23N 28°06' W 015°24'0 0.0
2017-Nov-10 05:53N 28°06' W 015°24'0 0.0
2017-Nov-10 05:23N 28°06' W 015°24'0 0.0
2017-Nov-10 04:50N 28°06' W 015°24'0 0.0
2017-Nov-10 04:23N 28°06' W 015°24'0 0.0
2017-Nov-10 03:56N 28°06' W 015°24'0 0.1
2017-Nov-10 03:26N 28°06' W 015°24'0 0.0
2017-Nov-10 02:56N 28°06' W 015°24'0 0.0
2017-Nov-10 02:26N 28°06' W 015°24'0 0.0
2017-Nov-10 01:53N 28°06' W 015°24'0 0.0
2017-Nov-10 01:26N 28°06' W 015°24'0 0.0
2017-Nov-10 00:53N 28°06' W 015°24'  
Track history (hours):
 
Tides and Currents Weather Stations Pressure Air Temp Water Temp Dewpoint Dewpoint Depression Visibility Wind Speed Wind Dir Waves Ship Positions

Sea Angel

Last reported at 2017-Nov-20 00:29 UTC. Time now 2017-Nov-23 20:58 UTC.
Position N 57°25' E 008°38'.

Length 181 m; draft 9.2 m.

Type: Cargo ship. MMSI: 538005945.

Date/timePositionNaut miles runAvg speedWind from/ knotsBaromVisibWave heightAir tempDewpointWater temp
2017-Nov-20 00:29N 57°25' E 008°38'510.5
2017-Nov-20 00:00N 57°21' E 008°30'  
2017-Nov-17 17:24N 51°32' E 002°16'511.3
2017-Nov-17 17:00N 51°28' E 002°11'611.6
2017-Nov-17 16:30N 51°24' E 002°05'611.6
2017-Nov-17 16:00N 51°20' E 001°58'612.0
2017-Nov-17 15:30N 51°15' E 001°52'612.1
2017-Nov-17 15:00N 51°11' E 001°46'612.2
2017-Nov-17 14:30N 51°06' E 001°40'612.5
2017-Nov-17 14:00N 51°00' E 001°36'712.9
2017-Nov-17 13:29N 50°55' E 001°30'6211.8
2017-Nov-17 08:15N 50°20' E 000°09'413.4
2017-Nov-17 07:58N 50°19' E 000°03'613.5
2017-Nov-17 07:30N 50°17' W 000°06'713.5
2017-Nov-17 06:56N 50°15' W 000°17'3012.8
2017-Nov-17 04:37N 50°08' W 001°02'111.4
2017-Nov-17 04:30N 50°08' W 001°04'611.1
2017-Nov-17 03:59N 50°06' W 001°13'510.4
2017-Nov-17 03:30N 50°05' W 001°21'5 9.6
2017-Nov-17 03:00N 50°04' W 001°28'4 9.0
2017-Nov-17 02:30N 50°03' W 001°35'4 8.3
2017-Nov-17 02:00N 50°02' W 001°41'4 7.8
2017-Nov-17 01:30N 50°01' W 001°47'4 7.4
2017-Nov-17 01:00N 49°60' W 001°52'4 7.4
2017-Nov-17 00:30N 49°59' W 001°58'4 7.3
2017-Nov-17 00:00N 49°58' W 002°03'4 7.8
2017-Nov-16 23:30N 49°57' W 002°09'2410.1
2017-Nov-16 21:10N 49°51' W 002°45'211.5
2017-Nov-16 21:00N 49°51' W 002°48'7111.4
2017-Nov-16 14:45N 49°16' W 004°24'3113.2
2017-Nov-16 12:24N 49°00' W 005°04'713.1
2017-Nov-16 11:53N 48°57' W 005°14'512.7
2017-Nov-16 11:30N 48°54' W 005°20'612.5
2017-Nov-16 11:00N 48°51' W 005°28'712.2
2017-Nov-16 10:27N 48°48' W 005°37'511.8
2017-Nov-16 10:00N 48°44' W 005°42'1011.4
2017-Nov-16 09:09N 48°35' W 005°48'211.2
2017-Nov-16 09:00N 48°34' W 005°50'1311.0
2017-Nov-16 07:51N 48°22' W 005°59'510.8
2017-Nov-16 07:24N 48°18' W 006°02'710.8
2017-Nov-16 06:46N 48°12' W 006°07'510.8
2017-Nov-16 06:21N 48°08' W 006°10'410.7
2017-Nov-16 05:58N 48°05' W 006°13'811.1
2017-Nov-16 05:14N 47°57' W 006°19'311.2
2017-Nov-16 04:56N 47°54' W 006°21'511.2
2017-Nov-16 04:28N 47°50' W 006°25'610.9
2017-Nov-16 03:55N 47°45' W 006°29'714.7
2017-Nov-16 03:28N 47°39' W 006°34'4 7.6
2017-Nov-16 03:00N 47°36' W 006°36'915.0
2017-Nov-16 02:24N 47°28' W 006°43'2 6.1
2017-Nov-16 01:59N 47°25' W 006°44'611.5
2017-Nov-16 01:27N 47°20' W 006°49'1110.9
2017-Nov-16 00:27N 47°10' W 006°56'712.0
2017-Nov-15 23:50N 47°04' W 007°01'412.7
2017-Nov-15 23:30N 46°60' W 007°04'812.2
2017-Nov-15 22:50N 46°53' W 007°10'1012.3
2017-Nov-15 22:02N 46°44' W 007°17'512.0
2017-Nov-15 21:36N 46°40' W 007°20'212.1
2017-Nov-15 21:25N 46°38' W 007°22'50810.8
2017-Nov-13 22:30N 38°42' W 011°27'510.7
2017-Nov-13 22:00N 38°37' W 011°28'43310.8
2017-Nov-12 06:00N 31°39' W 013°47'611.6
2017-Nov-12 05:30N 31°34' W 013°49'611.6
2017-Nov-12 05:00N 31°28' W 013°51'611.7
2017-Nov-12 04:30N 31°23' W 013°52'6711.2
2017-Nov-11 22:31N 30°18' W 014°13'010.7
2017-Nov-11 22:30N 30°17' W 014°13'510.7
2017-Nov-11 21:59N 30°12' W 014°15'510.6
2017-Nov-11 21:29N 30°07' W 014°16'510.6
2017-Nov-11 21:00N 30°02' W 014°18'510.5
2017-Nov-11 20:30N 29°57' W 014°19'510.2
2017-Nov-11 20:00N 29°52' W 014°21'510.4
2017-Nov-11 19:30N 29°47' W 014°22'510.3
2017-Nov-11 19:00N 29°42' W 014°24'910.8
2017-Nov-11 18:10N 29°33' W 014°27'1710.9
2017-Nov-11 16:35N 29°17' W 014°34'210.8
2017-Nov-11 16:25N 29°16' W 014°34'510.6
2017-Nov-11 15:59N 29°12' W 014°37'510.4
2017-Nov-11 15:30N 29°07' W 014°40'610.5
2017-Nov-11 14:59N 29°03' W 014°44'510.5
2017-Nov-11 14:28N 28°58' W 014°47'510.3
2017-Nov-11 14:00N 28°54' W 014°50'510.4
2017-Nov-11 13:30N 28°50' W 014°53'510.2
2017-Nov-11 13:00N 28°46' W 014°56'5 9.9
2017-Nov-11 12:30N 28°42' W 014°59'510.3
2017-Nov-11 12:00N 28°37' W 015°03'510.7
2017-Nov-11 11:30N 28°33' W 015°06'510.3
2017-Nov-11 11:00N 28°29' W 015°09'510.5
2017-Nov-11 10:30N 28°24' W 015°13'510.5
2017-Nov-11 10:00N 28°20' W 015°16'510.3
2017-Nov-11 09:30N 28°15' W 015°19'510.6
2017-Nov-11 09:00N 28°10' W 015°21'4 8.6
2017-Nov-11 08:30N 28°07' W 015°24'1 1.0
2017-Nov-11 07:53N 28°08' W 015°25'0 0.0
2017-Nov-11 07:26N 28°08' W 015°25'0 0.0
2017-Nov-11 06:59N 28°08' W 015°25'0 0.0
2017-Nov-11 06:26N 28°08' W 015°25'0 0.0
2017-Nov-11 05:53N 28°08' W 015°25'0 0.0
2017-Nov-11 05:26N 28°08' W 015°25'0 0.0
2017-Nov-11 04:59N 28°08' W 015°25'0 0.1
2017-Nov-11 04:29N 28°08' W 015°25'0 0.1
2017-Nov-11 03:59N 28°08' W 015°25'0 0.0
2017-Nov-11 03:29N 28°08' W 015°25'0 0.3
2017-Nov-11 02:59N 28°07' W 015°25'0 0.8
2017-Nov-11 02:30N 28°07' W 015°25'1 1.7
2017-Nov-11 01:59N 28°06' W 015°24'0 0.2
2017-Nov-11 01:29N 28°06' W 015°24'0 0.0
2017-Nov-11 00:59N 28°06' W 015°24'0 0.0
2017-Nov-11 00:29N 28°06' W 015°24'0 0.0
2017-Nov-10 23:50N 28°06' W 015°24'0 0.1
2017-Nov-10 23:29N 28°06' W 015°24'0 0.0
2017-Nov-10 22:50N 28°06' W 015°24'0 0.0
2017-Nov-10 22:20N 28°06' W 015°24'0 0.1
2017-Nov-10 21:50N 28°06' W 015°24'0 0.0
2017-Nov-10 21:23N 28°06' W 015°24'0 0.0
2017-Nov-10 20:50N 28°06' W 015°24'0 0.0
2017-Nov-10 20:23N 28°06' W 015°24'0 0.0
2017-Nov-10 19:56N 28°06' W 015°24'0 0.0
2017-Nov-10 19:23N 28°06' W 015°24'0 0.0
2017-Nov-10 18:56N 28°06' W 015°24'0 0.0
2017-Nov-10 18:26N 28°06' W 015°24'0 0.1
2017-Nov-10 17:56N 28°06' W 015°24'0 0.0
2017-Nov-10 17:23N 28°06' W 015°24'0 0.0
2017-Nov-10 16:56N 28°06' W 015°24'0 0.1
2017-Nov-10 16:29N 28°06' W 015°24'0 0.1
2017-Nov-10 15:56N 28°06' W 015°24'0 0.1
2017-Nov-10 15:26N 28°06' W 015°24'0 0.0
2017-Nov-10 14:59N 28°06' W 015°24'0 0.0
2017-Nov-10 14:23N 28°06' W 015°24'0 0.0
2017-Nov-10 13:59N 28°06' W 015°24'0 0.0
2017-Nov-10 13:14N 28°06' W 015°24'0 0.2
2017-Nov-10 12:59N 28°06' W 015°24'0 0.0
2017-Nov-10 12:29N 28°06' W 015°24'0 0.1
2017-Nov-10 11:59N 28°06' W 015°24'0 0.0
2017-Nov-10 11:29N 28°06' W 015°24'0 0.0
2017-Nov-10 10:59N 28°06' W 015°24'0 0.0
2017-Nov-10 10:20N 28°06' W 015°24'0 0.0
2017-Nov-10 09:59N 28°06' W 015°24'0 0.1
2017-Nov-10 09:29N 28°06' W 015°24'0 0.0
2017-Nov-10 08:50N 28°06' W 015°24'0 0.0
2017-Nov-10 08:29N 28°06' W 015°24'0 0.0
2017-Nov-10 07:50N 28°06' W 015°24'0 0.0
2017-Nov-10 07:23N 28°06' W 015°24'0 0.1
2017-Nov-10 06:53N 28°06' W 015°24'0 0.0
2017-Nov-10 06:23N 28°06' W 015°24'0 0.0
2017-Nov-10 05:53N 28°06' W 015°24'0 0.0
2017-Nov-10 05:23N 28°06' W 015°24'0 0.0
2017-Nov-10 04:50N 28°06' W 015°24'0 0.0
2017-Nov-10 04:23N 28°06' W 015°24'0 0.0
2017-Nov-10 03:56N 28°06' W 015°24'0 0.1
2017-Nov-10 03:26N 28°06' W 015°24'0 0.0
2017-Nov-10 02:56N 28°06' W 015°24'0 0.0
2017-Nov-10 02:26N 28°06' W 015°24'0 0.0
2017-Nov-10 01:53N 28°06' W 015°24'0 0.0
2017-Nov-10 01:26N 28°06' W 015°24'0 0.0
2017-Nov-10 00:53N 28°06' W 015°24'  

Dump ship's entire track history